sensor_id;sensor_type;location;lat;lon;timestamp;P1;P2;P0
76483;PMS5003;65318;-33.924;18.406;2022-12-07T00:02:09;2;2;
76483;PMS5003;65318;-33.924;18.406;2022-12-07T00:04:35;2;2;
76483;PMS5003;65318;-33.924;18.406;2022-12-07T00:07:01;3;3;
76483;PMS5003;65318;-33.924;18.406;2022-12-07T00:09:26;2;2;
76483;PMS5003;65318;-33.924;18.406;2022-12-07T00:11:52;4;3;
76483;PMS5003;65318;-33.924;18.406;2022-12-07T00:14:18;2;2;
76483;PMS5003;65318;-33.924;18.406;2022-12-07T00:16:43;2;2;
76483;PMS5003;65318;-33.924;18.406;2022-12-07T00:19:09;2;2;
76483;PMS5003;65318;-33.924;18.406;2022-12-07T00:21:35;2;2;
76483;PMS5003;65318;-33.924;18.406;2022-12-07T00:24:00;2;2;
76483;PMS5003;65318;-33.924;18.406;2022-12-07T00:26:26;2;2;
76483;PMS5003;65318;-33.924;18.406;2022-12-07T00:28:52;2;2;
76483;PMS5003;65318;-33.924;18.406;2022-12-07T00:31:17;4;3;
76483;PMS5003;65318;-33.924;18.406;2022-12-07T00:33:42;2;2;
76483;PMS5003;65318;-33.924;18.406;2022-12-07T00:36:09;3;3;
76483;PMS5003;65318;-33.924;18.406;2022-12-07T00:38:34;2;2;
76483;PMS5003;65318;-33.924;18.406;2022-12-07T00:40:59;2;2;
76483;PMS5003;65318;-33.924;18.406;2022-12-07T00:43:24;3;3;
76483;PMS5003;65318;-33.924;18.406;2022-12-07T00:45:50;3;3;
76483;PMS5003;65318;-33.924;18.406;2022-12-07T00:48:15;3;3;
76483;PMS5003;65318;-33.924;18.406;2022-12-07T00:50:41;1;1;
76483;PMS5003;65318;-33.924;18.406;2022-12-07T00:53:06;2;2;
76483;PMS5003;65318;-33.924;18.406;2022-12-07T00:55:32;3;2;
76483;PMS5003;65318;-33.924;18.406;2022-12-07T00:57:58;3;3;
76483;PMS5003;65318;-33.924;18.406;2022-12-07T01:00:23;3;3;
76483;PMS5003;65318;-33.924;18.406;2022-12-07T01:02:49;5;4;
76483;PMS5003;65318;-33.924;18.406;2022-12-07T01:05:14;3;3;
76483;PMS5003;65318;-33.924;18.406;2022-12-07T01:07:40;3;2;
76483;PMS5003;65318;-33.924;18.406;2022-12-07T01:10:06;1;1;
76483;PMS5003;65318;-33.924;18.406;2022-12-07T01:12:31;3;3;
76483;PMS5003;65318;-33.924;18.406;2022-12-07T01:14:56;2;2;
76483;PMS5003;65318;-33.924;18.406;2022-12-07T01:17:22;3;3;
76483;PMS5003;65318;-33.924;18.406;2022-12-07T01:19:48;2;2;
76483;PMS5003;65318;-33.924;18.406;2022-12-07T01:22:13;2;2;
76483;PMS5003;65318;-33.924;18.406;2022-12-07T01:24:39;2;2;
76483;PMS5003;65318;-33.924;18.406;2022-12-07T01:27:04;2;2;
76483;PMS5003;65318;-33.924;18.406;2022-12-07T01:29:30;3;2;
76483;PMS5003;65318;-33.924;18.406;2022-12-07T01:31:55;3;3;
76483;PMS5003;65318;-33.924;18.406;2022-12-07T01:34:21;2;2;
76483;PMS5003;65318;-33.924;18.406;2022-12-07T01:36:46;2;2;
76483;PMS5003;65318;-33.924;18.406;2022-12-07T01:39:12;3;3;
76483;PMS5003;65318;-33.924;18.406;2022-12-07T01:41:38;3;3;
76483;PMS5003;65318;-33.924;18.406;2022-12-07T01:44:08;4;4;
76483;PMS5003;65318;-33.924;18.406;2022-12-07T01:46:29;2;2;
76483;PMS5003;65318;-33.924;18.406;2022-12-07T01:48:54;2;2;
76483;PMS5003;65318;-33.924;18.406;2022-12-07T01:51:20;2;2;
76483;PMS5003;65318;-33.924;18.406;2022-12-07T01:53:45;3;3;
76483;PMS5003;65318;-33.924;18.406;2022-12-07T01:56:12;3;3;
76483;PMS5003;65318;-33.924;18.406;2022-12-07T01:58:37;2;2;
76483;PMS5003;65318;-33.924;18.406;2022-12-07T02:01:02;2;2;
76483;PMS5003;65318;-33.924;18.406;2022-12-07T02:03:30;3;3;
76483;PMS5003;65318;-33.924;18.406;2022-12-07T02:05:54;2;2;
76483;PMS5003;65318;-33.924;18.406;2022-12-07T02:08:19;1;1;
76483;PMS5003;65318;-33.924;18.406;2022-12-07T02:10:45;2;2;
76483;PMS5003;65318;-33.924;18.406;2022-12-07T02:13:11;4;3;
76483;PMS5003;65318;-33.924;18.406;2022-12-07T02:15:40;4;4;
76483;PMS5003;65318;-33.924;18.406;2022-12-07T02:18:03;4;3;
76483;PMS5003;65318;-33.924;18.406;2022-12-07T02:20:28;3;3;
76483;PMS5003;65318;-33.924;18.406;2022-12-07T02:23:03;3;3;
76483;PMS5003;65318;-33.924;18.406;2022-12-07T02:25:21;3;3;
76483;PMS5003;65318;-33.924;18.406;2022-12-07T02:27:45;3;3;
76483;PMS5003;65318;-33.924;18.406;2022-12-07T02:30:10;3;3;
76483;PMS5003;65318;-33.924;18.406;2022-12-07T02:32:39;2;2;
76483;PMS5003;65318;-33.924;18.406;2022-12-07T02:35:02;3;2;
76483;PMS5003;65318;-33.924;18.406;2022-12-07T02:37:29;3;3;
76483;PMS5003;65318;-33.924;18.406;2022-12-07T02:39:53;2;2;
76483;PMS5003;65318;-33.924;18.406;2022-12-07T02:42:17;3;3;
76483;PMS5003;65318;-33.924;18.406;2022-12-07T02:44:42;2;2;
76483;PMS5003;65318;-33.924;18.406;2022-12-07T02:47:09;3;3;
76483;PMS5003;65318;-33.924;18.406;2022-12-07T02:49:34;2;2;
76483;PMS5003;65318;-33.924;18.406;2022-12-07T02:51:59;2;2;
76483;PMS5003;65318;-33.924;18.406;2022-12-07T02:54:25;4;4;
76483;PMS5003;65318;-33.924;18.406;2022-12-07T02:56:51;3;3;
76483;PMS5003;65318;-33.924;18.406;2022-12-07T02:59:19;3;3;
76483;PMS5003;65318;-33.924;18.406;2022-12-07T03:01:43;4;4;
76483;PMS5003;65318;-33.924;18.406;2022-12-07T03:04:08;3;3;
76483;PMS5003;65318;-33.924;18.406;2022-12-07T03:06:34;4;4;
76483;PMS5003;65318;-33.924;18.406;2022-12-07T03:09:01;4;4;
76483;PMS5003;65318;-33.924;18.406;2022-12-07T03:11:25;2;2;
76483;PMS5003;65318;-33.924;18.406;2022-12-07T03:13:50;2;2;
76483;PMS5003;65318;-33.924;18.406;2022-12-07T03:16:15;1;1;
76483;PMS5003;65318;-33.924;18.406;2022-12-07T03:18:41;3;3;
76483;PMS5003;65318;-33.924;18.406;2022-12-07T03:21:09;3;3;
76483;PMS5003;65318;-33.924;18.406;2022-12-07T03:23:32;3;2;
76483;PMS5003;65318;-33.924;18.406;2022-12-07T03:25:58;3;3;
76483;PMS5003;65318;-33.924;18.406;2022-12-07T03:28:23;3;3;
76483;PMS5003;65318;-33.924;18.406;2022-12-07T03:30:49;4;4;
76483;PMS5003;65318;-33.924;18.406;2022-12-07T03:33:15;4;3;
76483;PMS5003;65318;-33.924;18.406;2022-12-07T03:35:40;3;3;
76483;PMS5003;65318;-33.924;18.406;2022-12-07T03:38:08;2;2;
76483;PMS5003;65318;-33.924;18.406;2022-12-07T03:40:32;3;3;
76483;PMS5003;65318;-33.924;18.406;2022-12-07T03:42:56;4;3;
76483;PMS5003;65318;-33.924;18.406;2022-12-07T03:45:23;3;3;
76483;PMS5003;65318;-33.924;18.406;2022-12-07T03:47:48;3;3;
76483;PMS5003;65318;-33.924;18.406;2022-12-07T03:50:14;3;3;
76483;PMS5003;65318;-33.924;18.406;2022-12-07T03:52:39;2;2;
76483;PMS5003;65318;-33.924;18.406;2022-12-07T03:55:05;3;3;
76483;PMS5003;65318;-33.924;18.406;2022-12-07T03:57:30;2;2;
76483;PMS5003;65318;-33.924;18.406;2022-12-07T03:59:55;3;3;
76483;PMS5003;65318;-33.924;18.406;2022-12-07T04:02:21;3;3;
76483;PMS5003;65318;-33.924;18.406;2022-12-07T04:04:46;2;2;
76483;PMS5003;65318;-33.924;18.406;2022-12-07T04:07:12;3;3;
76483;PMS5003;65318;-33.924;18.406;2022-12-07T04:09:37;4;4;
76483;PMS5003;65318;-33.924;18.406;2022-12-07T04:12:03;4;3;
76483;PMS5003;65318;-33.924;18.406;2022-12-07T04:14:29;5;4;
76483;PMS5003;65318;-33.924;18.406;2022-12-07T04:16:55;4;4;
76483;PMS5003;65318;-33.924;18.406;2022-12-07T04:19:20;6;5;
76483;PMS5003;65318;-33.924;18.406;2022-12-07T04:21:45;6;6;
76483;PMS5003;65318;-33.924;18.406;2022-12-07T04:24:11;5;5;
76483;PMS5003;65318;-33.924;18.406;2022-12-07T04:26:36;7;7;
76483;PMS5003;65318;-33.924;18.406;2022-12-07T04:29:02;3;3;
76483;PMS5003;65318;-33.924;18.406;2022-12-07T04:31:27;5;5;
76483;PMS5003;65318;-33.924;18.406;2022-12-07T04:33:53;4;4;
76483;PMS5003;65318;-33.924;18.406;2022-12-07T04:36:19;5;4;
76483;PMS5003;65318;-33.924;18.406;2022-12-07T04:38:44;4;4;
76483;PMS5003;65318;-33.924;18.406;2022-12-07T04:41:10;5;5;
76483;PMS5003;65318;-33.924;18.406;2022-12-07T04:43:35;3;3;
76483;PMS5003;65318;-33.924;18.406;2022-12-07T04:46:01;5;5;
76483;PMS5003;65318;-33.924;18.406;2022-12-07T04:48:27;4;4;
76483;PMS5003;65318;-33.924;18.406;2022-12-07T04:50:52;4;4;
76483;PMS5003;65318;-33.924;18.406;2022-12-07T04:53:17;3;3;
76483;PMS5003;65318;-33.924;18.406;2022-12-07T04:55:43;3;3;
76483;PMS5003;65318;-33.924;18.406;2022-12-07T04:58:08;3;3;
76483;PMS5003;65318;-33.924;18.406;2022-12-07T05:00:34;4;4;
76483;PMS5003;65318;-33.924;18.406;2022-12-07T05:02:59;4;3;
76483;PMS5003;65318;-33.924;18.406;2022-12-07T05:05:25;4;4;
76483;PMS5003;65318;-33.924;18.406;2022-12-07T05:07:50;5;4;
76483;PMS5003;65318;-33.924;18.406;2022-12-07T05:10:16;4;4;
76483;PMS5003;65318;-33.924;18.406;2022-12-07T05:12:42;4;4;
76483;PMS5003;65318;-33.924;18.406;2022-12-07T05:15:07;3;3;
76483;PMS5003;65318;-33.924;18.406;2022-12-07T05:17:33;5;4;
76483;PMS5003;65318;-33.924;18.406;2022-12-07T05:19:58;6;6;
76483;PMS5003;65318;-33.924;18.406;2022-12-07T05:22:24;4;4;
76483;PMS5003;65318;-33.924;18.406;2022-12-07T05:24:49;4;4;
76483;PMS5003;65318;-33.924;18.406;2022-12-07T05:27:15;4;4;
76483;PMS5003;65318;-33.924;18.406;2022-12-07T05:29:40;4;4;
76483;PMS5003;65318;-33.924;18.406;2022-12-07T05:32:06;3;3;
76483;PMS5003;65318;-33.924;18.406;2022-12-07T05:34:31;4;4;
76483;PMS5003;65318;-33.924;18.406;2022-12-07T05:36:57;4;4;
76483;PMS5003;65318;-33.924;18.406;2022-12-07T05:39:22;3;3;
76483;PMS5003;65318;-33.924;18.406;2022-12-07T05:41:48;5;4;
76483;PMS5003;65318;-33.924;18.406;2022-12-07T05:44:13;2;2;
76483;PMS5003;65318;-33.924;18.406;2022-12-07T05:46:39;3;3;
76483;PMS5003;65318;-33.924;18.406;2022-12-07T05:49:04;4;4;
76483;PMS5003;65318;-33.924;18.406;2022-12-07T05:51:30;3;3;
76483;PMS5003;65318;-33.924;18.406;2022-12-07T05:53:55;3;3;
76483;PMS5003;65318;-33.924;18.406;2022-12-07T05:56:21;2;2;
76483;PMS5003;65318;-33.924;18.406;2022-12-07T05:58:46;3;3;
76483;PMS5003;65318;-33.924;18.406;2022-12-07T06:01:12;3;3;
76483;PMS5003;65318;-33.924;18.406;2022-12-07T06:03:37;2;2;
76483;PMS5003;65318;-33.924;18.406;2022-12-07T06:06:03;2;2;
76483;PMS5003;65318;-33.924;18.406;2022-12-07T06:08:28;3;3;
76483;PMS5003;65318;-33.924;18.406;2022-12-07T06:10:54;4;4;
76483;PMS5003;65318;-33.924;18.406;2022-12-07T06:13:19;4;3;
76483;PMS5003;65318;-33.924;18.406;2022-12-07T06:15:45;3;3;
76483;PMS5003;65318;-33.924;18.406;2022-12-07T06:18:10;4;4;
76483;PMS5003;65318;-33.924;18.406;2022-12-07T06:20:36;4;3;
76483;PMS5003;65318;-33.924;18.406;2022-12-07T06:23:01;3;2;
76483;PMS5003;65318;-33.924;18.406;2022-12-07T06:25:27;3;3;
76483;PMS5003;65318;-33.924;18.406;2022-12-07T06:27:53;5;4;
76483;PMS5003;65318;-33.924;18.406;2022-12-07T06:30:18;2;2;
76483;PMS5003;65318;-33.924;18.406;2022-12-07T06:32:43;3;3;
76483;PMS5003;65318;-33.924;18.406;2022-12-07T06:35:09;4;3;
76483;PMS5003;65318;-33.924;18.406;2022-12-07T06:37:35;4;4;
76483;PMS5003;65318;-33.924;18.406;2022-12-07T06:40:00;3;3;
76483;PMS5003;65318;-33.924;18.406;2022-12-07T06:42:25;3;2;
76483;PMS5003;65318;-33.924;18.406;2022-12-07T06:44:51;3;2;
76483;PMS5003;65318;-33.924;18.406;2022-12-07T06:47:16;3;3;
76483;PMS5003;65318;-33.924;18.406;2022-12-07T06:49:42;7;3;
76483;PMS5003;65318;-33.924;18.406;2022-12-07T06:52:08;4;3;
76483;PMS5003;65318;-33.924;18.406;2022-12-07T06:54:33;4;3;
76483;PMS5003;65318;-33.924;18.406;2022-12-07T06:56:59;5;3;
76483;PMS5003;65318;-33.924;18.406;2022-12-07T06:59:24;3;3;
76483;PMS5003;65318;-33.924;18.406;2022-12-07T07:01:50;3;2;
76483;PMS5003;65318;-33.924;18.406;2022-12-07T07:04:15;5;4;
76483;PMS5003;65318;-33.924;18.406;2022-12-07T07:06:41;4;4;
76483;PMS5003;65318;-33.924;18.406;2022-12-07T07:09:06;5;5;
76483;PMS5003;65318;-33.924;18.406;2022-12-07T07:11:32;12;10;
76483;PMS5003;65318;-33.924;18.406;2022-12-07T07:13:57;21;16;
76483;PMS5003;65318;-33.924;18.406;2022-12-07T07:16:22;11;11;
76483;PMS5003;65318;-33.924;18.406;2022-12-07T07:18:47;9;9;
76483;PMS5003;65318;-33.924;18.406;2022-12-07T07:21:13;9;8;
76483;PMS5003;65318;-33.924;18.406;2022-12-07T07:23:38;8;8;
76483;PMS5003;65318;-33.924;18.406;2022-12-07T07:26:04;7;7;
76483;PMS5003;65318;-33.924;18.406;2022-12-07T07:28:29;9;6;
76483;PMS5003;65318;-33.924;18.406;2022-12-07T07:30:55;7;7;
76483;PMS5003;65318;-33.924;18.406;2022-12-07T07:33:20;6;6;
76483;PMS5003;65318;-33.924;18.406;2022-12-07T07:35:46;6;6;
76483;PMS5003;65318;-33.924;18.406;2022-12-07T07:38:12;7;7;
76483;PMS5003;65318;-33.924;18.406;2022-12-07T07:40:37;6;6;
76483;PMS5003;65318;-33.924;18.406;2022-12-07T07:43:02;5;5;
76483;PMS5003;65318;-33.924;18.406;2022-12-07T07:45:28;5;5;
76483;PMS5003;65318;-33.924;18.406;2022-12-07T07:47:53;6;5;
76483;PMS5003;65318;-33.924;18.406;2022-12-07T07:50:19;6;6;
76483;PMS5003;65318;-33.924;18.406;2022-12-07T07:52:44;5;5;
76483;PMS5003;65318;-33.924;18.406;2022-12-07T07:55:10;4;4;
76483;PMS5003;65318;-33.924;18.406;2022-12-07T07:57:35;3;3;
76483;PMS5003;65318;-33.924;18.406;2022-12-07T08:00:01;4;4;
76483;PMS5003;65318;-33.924;18.406;2022-12-07T08:02:26;5;5;
76483;PMS5003;65318;-33.924;18.406;2022-12-07T08:04:52;3;3;
76483;PMS5003;65318;-33.924;18.406;2022-12-07T08:07:17;5;5;
76483;PMS5003;65318;-33.924;18.406;2022-12-07T08:09:42;4;3;
76483;PMS5003;65318;-33.924;18.406;2022-12-07T08:12:08;3;3;
76483;PMS5003;65318;-33.924;18.406;2022-12-07T08:14:34;4;4;
76483;PMS5003;65318;-33.924;18.406;2022-12-07T08:16:59;3;3;
76483;PMS5003;65318;-33.924;18.406;2022-12-07T08:19:24;5;4;
76483;PMS5003;65318;-33.924;18.406;2022-12-07T08:21:50;4;4;
76483;PMS5003;65318;-33.924;18.406;2022-12-07T08:24:15;3;3;
76483;PMS5003;65318;-33.924;18.406;2022-12-07T08:26:41;2;2;
76483;PMS5003;65318;-33.924;18.406;2022-12-07T08:29:06;5;4;
76483;PMS5003;65318;-33.924;18.406;2022-12-07T08:31:32;4;3;
76483;PMS5003;65318;-33.924;18.406;2022-12-07T08:33:58;5;4;
76483;PMS5003;65318;-33.924;18.406;2022-12-07T08:36:23;4;4;
76483;PMS5003;65318;-33.924;18.406;2022-12-07T08:38:49;2;2;
76483;PMS5003;65318;-33.924;18.406;2022-12-07T08:41:14;4;4;
76483;PMS5003;65318;-33.924;18.406;2022-12-07T08:43:40;3;3;
76483;PMS5003;65318;-33.924;18.406;2022-12-07T08:46:07;5;3;
76483;PMS5003;65318;-33.924;18.406;2022-12-07T08:48:31;4;2;
76483;PMS5003;65318;-33.924;18.406;2022-12-07T08:50:57;4;4;
76483;PMS5003;65318;-33.924;18.406;2022-12-07T08:53:22;4;4;
76483;PMS5003;65318;-33.924;18.406;2022-12-07T08:55:47;4;3;
76483;PMS5003;65318;-33.924;18.406;2022-12-07T08:58:13;2;2;
76483;PMS5003;65318;-33.924;18.406;2022-12-07T09:00:38;3;3;
76483;PMS5003;65318;-33.924;18.406;2022-12-07T09:03:04;3;2;
76483;PMS5003;65318;-33.924;18.406;2022-12-07T09:05:29;4;4;
76483;PMS5003;65318;-33.924;18.406;2022-12-07T09:07:55;4;4;
76483;PMS5003;65318;-33.924;18.406;2022-12-07T09:10:20;5;5;
76483;PMS5003;65318;-33.924;18.406;2022-12-07T09:12:46;4;3;
76483;PMS5003;65318;-33.924;18.406;2022-12-07T09:15:11;3;3;
76483;PMS5003;65318;-33.924;18.406;2022-12-07T09:17:37;5;4;
76483;PMS5003;65318;-33.924;18.406;2022-12-07T09:20:03;4;4;
76483;PMS5003;65318;-33.924;18.406;2022-12-07T09:22:28;5;5;
76483;PMS5003;65318;-33.924;18.406;2022-12-07T09:24:54;7;7;
76483;PMS5003;65318;-33.924;18.406;2022-12-07T09:27:19;7;7;
76483;PMS5003;65318;-33.924;18.406;2022-12-07T09:29:44;4;4;
76483;PMS5003;65318;-33.924;18.406;2022-12-07T09:32:10;5;5;
76483;PMS5003;65318;-33.924;18.406;2022-12-07T09:34:35;5;5;
76483;PMS5003;65318;-33.924;18.406;2022-12-07T09:37:01;6;6;
76483;PMS5003;65318;-33.924;18.406;2022-12-07T09:39:27;5;5;
76483;PMS5003;65318;-33.924;18.406;2022-12-07T09:41:52;5;5;
76483;PMS5003;65318;-33.924;18.406;2022-12-07T09:44:19;3;3;
76483;PMS5003;65318;-33.924;18.406;2022-12-07T09:46:43;3;3;
76483;PMS5003;65318;-33.924;18.406;2022-12-07T09:49:09;4;3;
76483;PMS5003;65318;-33.924;18.406;2022-12-07T09:51:34;2;2;
76483;PMS5003;65318;-33.924;18.406;2022-12-07T09:53:59;4;3;
76483;PMS5003;65318;-33.924;18.406;2022-12-07T09:56:25;4;4;
76483;PMS5003;65318;-33.924;18.406;2022-12-07T09:58:50;2;2;
76483;PMS5003;65318;-33.924;18.406;2022-12-07T10:01:17;4;4;
76483;PMS5003;65318;-33.924;18.406;2022-12-07T10:03:42;2;2;
76483;PMS5003;65318;-33.924;18.406;2022-12-07T10:06:06;2;2;
76483;PMS5003;65318;-33.924;18.406;2022-12-07T10:08:32;4;3;
76483;PMS5003;65318;-33.924;18.406;2022-12-07T10:10:57;1;1;
76483;PMS5003;65318;-33.924;18.406;2022-12-07T10:13:33;3;3;
76483;PMS5003;65318;-33.924;18.406;2022-12-07T10:15:50;3;3;
76483;PMS5003;65318;-33.924;18.406;2022-12-07T10:18:18;2;2;
76483;PMS5003;65318;-33.924;18.406;2022-12-07T10:20:39;3;3;
76483;PMS5003;65318;-33.924;18.406;2022-12-07T10:23:05;3;3;
76483;PMS5003;65318;-33.924;18.406;2022-12-07T10:25:31;3;3;
76483;PMS5003;65318;-33.924;18.406;2022-12-07T10:27:57;2;2;
76483;PMS5003;65318;-33.924;18.406;2022-12-07T10:30:21;4;4;
76483;PMS5003;65318;-33.924;18.406;2022-12-07T10:32:46;4;4;
76483;PMS5003;65318;-33.924;18.406;2022-12-07T10:35:19;3;3;
76483;PMS5003;65318;-33.924;18.406;2022-12-07T10:37:40;3;2;
76483;PMS5003;65318;-33.924;18.406;2022-12-07T10:40:18;2;2;
76483;PMS5003;65318;-33.924;18.406;2022-12-07T10:42:29;3;3;
76483;PMS5003;65318;-33.924;18.406;2022-12-07T10:47:24;3;2;
76483;PMS5003;65318;-33.924;18.406;2022-12-07T10:52:13;5;4;
76483;PMS5003;65318;-33.924;18.406;2022-12-07T10:54:38;5;4;
76483;PMS5003;65318;-33.924;18.406;2022-12-07T10:57:05;3;3;
76483;PMS5003;65318;-33.924;18.406;2022-12-07T10:59:33;4;4;
76483;PMS5003;65318;-33.924;18.406;2022-12-07T11:01:54;3;3;
76483;PMS5003;65318;-33.924;18.406;2022-12-07T11:04:21;5;2;
76483;PMS5003;65318;-33.924;18.406;2022-12-07T11:06:45;4;4;
76483;PMS5003;65318;-33.924;18.406;2022-12-07T11:11:35;2;2;
76483;PMS5003;65318;-33.924;18.406;2022-12-07T11:14:01;3;3;
76483;PMS5003;65318;-33.924;18.406;2022-12-07T11:16:29;3;3;
76483;PMS5003;65318;-33.924;18.406;2022-12-07T11:18:55;4;3;
76483;PMS5003;65318;-33.924;18.406;2022-12-07T11:21:18;3;3;
76483;PMS5003;65318;-33.924;18.406;2022-12-07T11:23:45;5;4;
76483;PMS5003;65318;-33.924;18.406;2022-12-07T11:26:09;3;3;
76483;PMS5003;65318;-33.924;18.406;2022-12-07T11:28:37;2;2;
76483;PMS5003;65318;-33.924;18.406;2022-12-07T11:31:00;3;3;
76483;PMS5003;65318;-33.924;18.406;2022-12-07T11:33:26;3;3;
76483;PMS5003;65318;-33.924;18.406;2022-12-07T11:35:52;3;3;
76483;PMS5003;65318;-33.924;18.406;2022-12-07T11:38:15;3;3;
76483;PMS5003;65318;-33.924;18.406;2022-12-07T11:40:40;4;4;
76483;PMS5003;65318;-33.924;18.406;2022-12-07T11:43:09;3;3;
76483;PMS5003;65318;-33.924;18.406;2022-12-07T11:45:32;2;2;
76483;PMS5003;65318;-33.924;18.406;2022-12-07T11:47:58;3;2;
76483;PMS5003;65318;-33.924;18.406;2022-12-07T11:50:25;2;2;
76483;PMS5003;65318;-33.924;18.406;2022-12-07T11:52:48;4;3;
76483;PMS5003;65318;-33.924;18.406;2022-12-07T11:55:16;3;3;
76483;PMS5003;65318;-33.924;18.406;2022-12-07T11:57:40;2;2;
76483;PMS5003;65318;-33.924;18.406;2022-12-07T12:00:05;3;3;
76483;PMS5003;65318;-33.924;18.406;2022-12-07T12:02:32;6;4;
76483;PMS5003;65318;-33.924;18.406;2022-12-07T12:04:56;3;3;
76483;PMS5003;65318;-33.924;18.406;2022-12-07T12:07:22;3;3;
76483;PMS5003;65318;-33.924;18.406;2022-12-07T12:09:48;3;3;
76483;PMS5003;65318;-33.924;18.406;2022-12-07T12:12:18;2;2;
76483;PMS5003;65318;-33.924;18.406;2022-12-07T12:14:40;3;2;
76483;PMS5003;65318;-33.924;18.406;2022-12-07T12:17:07;2;2;
76483;PMS5003;65318;-33.924;18.406;2022-12-07T12:19:30;3;3;
76483;PMS5003;65318;-33.924;18.406;2022-12-07T12:21:54;3;3;
76483;PMS5003;65318;-33.924;18.406;2022-12-07T12:24:19;3;2;
76483;PMS5003;65318;-33.924;18.406;2022-12-07T12:26:48;4;2;
76483;PMS5003;65318;-33.924;18.406;2022-12-07T12:31:36;3;3;
76483;PMS5003;65318;-33.924;18.406;2022-12-07T12:36:27;4;2;
76483;PMS5003;65318;-33.924;18.406;2022-12-07T12:39:07;3;2;
76483;PMS5003;65318;-33.924;18.406;2022-12-07T12:43:44;2;2;
76483;PMS5003;65318;-33.924;18.406;2022-12-07T12:48:35;4;3;
76483;PMS5003;65318;-33.924;18.406;2022-12-07T12:53:25;2;2;
76483;PMS5003;65318;-33.924;18.406;2022-12-07T12:56:04;3;3;
76483;PMS5003;65318;-33.924;18.406;2022-12-07T13:00:40;2;2;
76483;PMS5003;65318;-33.924;18.406;2022-12-07T13:05:32;2;2;
76483;PMS5003;65318;-33.924;18.406;2022-12-07T13:07:58;3;3;
76483;PMS5003;65318;-33.924;18.406;2022-12-07T13:20:05;5;5;
76483;PMS5003;65318;-33.924;18.406;2022-12-07T13:22:37;3;3;
76483;PMS5003;65318;-33.924;18.406;2022-12-07T13:24:56;2;2;
76483;PMS5003;65318;-33.924;18.406;2022-12-07T13:27:21;3;3;
76483;PMS5003;65318;-33.924;18.406;2022-12-07T13:29:47;3;2;
76483;PMS5003;65318;-33.924;18.406;2022-12-07T13:32:17;4;4;
76483;PMS5003;65318;-33.924;18.406;2022-12-07T13:34:38;3;2;
76483;PMS5003;65318;-33.924;18.406;2022-12-07T13:37:04;3;2;
76483;PMS5003;65318;-33.924;18.406;2022-12-07T13:39:28;3;3;
76483;PMS5003;65318;-33.924;18.406;2022-12-07T13:41:55;2;2;
76483;PMS5003;65318;-33.924;18.406;2022-12-07T13:44:20;2;2;
76483;PMS5003;65318;-33.924;18.406;2022-12-07T13:46:48;1;1;
76483;PMS5003;65318;-33.924;18.406;2022-12-07T13:49:17;2;0;
76483;PMS5003;65318;-33.924;18.406;2022-12-07T13:51:36;4;3;
76483;PMS5003;65318;-33.924;18.406;2022-12-07T13:54:08;3;3;
76483;PMS5003;65318;-33.924;18.406;2022-12-07T13:56:28;4;3;
76483;PMS5003;65318;-33.924;18.406;2022-12-07T13:58:53;2;2;
76483;PMS5003;65318;-33.924;18.406;2022-12-07T14:01:18;4;4;
76483;PMS5003;65318;-33.924;18.406;2022-12-07T14:03:43;3;3;
76483;PMS5003;65318;-33.924;18.406;2022-12-07T14:06:16;4;4;
76483;PMS5003;65318;-33.924;18.406;2022-12-07T14:08:34;3;3;
76483;PMS5003;65318;-33.924;18.406;2022-12-07T14:11:00;4;4;
76483;PMS5003;65318;-33.924;18.406;2022-12-07T14:13:27;3;3;
76483;PMS5003;65318;-33.924;18.406;2022-12-07T14:15:51;2;2;
76483;PMS5003;65318;-33.924;18.406;2022-12-07T14:20:42;3;3;
76483;PMS5003;65318;-33.924;18.406;2022-12-07T14:25:33;3;3;
76483;PMS5003;65318;-33.924;18.406;2022-12-07T14:27:59;4;4;
76483;PMS5003;65318;-33.924;18.406;2022-12-07T14:30:25;5;5;
76483;PMS5003;65318;-33.924;18.406;2022-12-07T14:32:50;3;3;
76483;PMS5003;65318;-33.924;18.406;2022-12-07T14:35:15;3;3;
76483;PMS5003;65318;-33.924;18.406;2022-12-07T14:37:40;2;2;
76483;PMS5003;65318;-33.924;18.406;2022-12-07T14:40:06;4;3;
76483;PMS5003;65318;-33.924;18.406;2022-12-07T14:42:31;3;3;
76483;PMS5003;65318;-33.924;18.406;2022-12-07T14:44:57;6;4;
76483;PMS5003;65318;-33.924;18.406;2022-12-07T14:47:22;4;3;
76483;PMS5003;65318;-33.924;18.406;2022-12-07T14:49:47;3;3;
76483;PMS5003;65318;-33.924;18.406;2022-12-07T14:52:14;5;4;
76483;PMS5003;65318;-33.924;18.406;2022-12-07T14:54:38;4;4;
76483;PMS5003;65318;-33.924;18.406;2022-12-07T14:57:04;4;3;
76483;PMS5003;65318;-33.924;18.406;2022-12-07T14:59:29;3;3;
76483;PMS5003;65318;-33.924;18.406;2022-12-07T15:01:55;4;3;
76483;PMS5003;65318;-33.924;18.406;2022-12-07T15:04:20;4;4;
76483;PMS5003;65318;-33.924;18.406;2022-12-07T15:09:11;3;3;
76483;PMS5003;65318;-33.924;18.406;2022-12-07T15:11:36;2;2;
76483;PMS5003;65318;-33.924;18.406;2022-12-07T15:14:02;4;4;
76483;PMS5003;65318;-33.924;18.406;2022-12-07T15:16:27;4;3;
76483;PMS5003;65318;-33.924;18.406;2022-12-07T15:18:53;2;2;
76483;PMS5003;65318;-33.924;18.406;2022-12-07T15:21:18;5;5;
76483;PMS5003;65318;-33.924;18.406;2022-12-07T15:23:44;3;3;
76483;PMS5003;65318;-33.924;18.406;2022-12-07T15:26:09;4;3;
76483;PMS5003;65318;-33.924;18.406;2022-12-07T15:28:35;5;5;
76483;PMS5003;65318;-33.924;18.406;2022-12-07T15:31:00;3;3;
76483;PMS5003;65318;-33.924;18.406;2022-12-07T15:33:25;5;5;
76483;PMS5003;65318;-33.924;18.406;2022-12-07T15:35:51;5;5;
76483;PMS5003;65318;-33.924;18.406;2022-12-07T15:38:16;8;7;
76483;PMS5003;65318;-33.924;18.406;2022-12-07T15:40:42;14;13;
76483;PMS5003;65318;-33.924;18.406;2022-12-07T15:43:08;14;13;
76483;PMS5003;65318;-33.924;18.406;2022-12-07T15:45:33;13;12;
76483;PMS5003;65318;-33.924;18.406;2022-12-07T15:47:58;11;11;
76483;PMS5003;65318;-33.924;18.406;2022-12-07T15:50:24;11;11;
76483;PMS5003;65318;-33.924;18.406;2022-12-07T15:52:49;9;9;
76483;PMS5003;65318;-33.924;18.406;2022-12-07T15:55:15;10;9;
76483;PMS5003;65318;-33.924;18.406;2022-12-07T15:57:40;8;8;
76483;PMS5003;65318;-33.924;18.406;2022-12-07T16:00:07;10;9;
76483;PMS5003;65318;-33.924;18.406;2022-12-07T16:02:31;8;8;
76483;PMS5003;65318;-33.924;18.406;2022-12-07T16:04:57;7;7;
76483;PMS5003;65318;-33.924;18.406;2022-12-07T16:07:22;8;8;
76483;PMS5003;65318;-33.924;18.406;2022-12-07T16:09:48;10;10;
76483;PMS5003;65318;-33.924;18.406;2022-12-07T16:12:13;12;11;
76483;PMS5003;65318;-33.924;18.406;2022-12-07T16:14:39;17;15;
76483;PMS5003;65318;-33.924;18.406;2022-12-07T16:17:04;15;15;
76483;PMS5003;65318;-33.924;18.406;2022-12-07T16:19:29;10;10;
76483;PMS5003;65318;-33.924;18.406;2022-12-07T16:21:54;10;9;
76483;PMS5003;65318;-33.924;18.406;2022-12-07T16:24:20;9;9;
76483;PMS5003;65318;-33.924;18.406;2022-12-07T16:26:45;10;9;
76483;PMS5003;65318;-33.924;18.406;2022-12-07T16:29:11;10;9;
76483;PMS5003;65318;-33.924;18.406;2022-12-07T16:31:36;8;7;
76483;PMS5003;65318;-33.924;18.406;2022-12-07T16:34:01;9;9;
76483;PMS5003;65318;-33.924;18.406;2022-12-07T16:36:27;7;7;
76483;PMS5003;65318;-33.924;18.406;2022-12-07T16:38:53;8;7;
76483;PMS5003;65318;-33.924;18.406;2022-12-07T16:41:18;8;8;
76483;PMS5003;65318;-33.924;18.406;2022-12-07T16:43:43;6;6;
76483;PMS5003;65318;-33.924;18.406;2022-12-07T16:46:09;7;7;